createdAt,value
2019-04-21T00:01:46.544Z,6.23
2019-04-21T00:04:24.851Z,6.17
2019-04-21T00:07:03.063Z,6.19
2019-04-21T00:09:42.323Z,6.21
2019-04-21T00:12:08.958Z,6.21
2019-04-21T00:14:31.601Z,6.27
2019-04-21T00:16:56.024Z,6.27
2019-04-21T00:19:40.806Z,6.29
2019-04-21T00:22:23.233Z,6.28
2019-04-21T00:24:58.368Z,6.31
2019-04-21T00:27:32.433Z,6.30
2019-04-21T00:30:08.731Z,6.30
2019-04-21T00:32:28.172Z,6.33
2019-04-21T00:34:56.601Z,6.37
2019-04-21T00:37:30.273Z,6.32
2019-04-21T00:40:09.429Z,6.29
2019-04-21T00:42:38.897Z,6.27
2019-04-21T00:45:09.821Z,6.26
2019-04-21T00:47:38.796Z,6.28
2019-04-21T00:50:19.098Z,6.22
2019-04-21T00:53:22.781Z,6.14
2019-04-21T00:55:56.170Z,6.11
2019-04-21T00:58:30.418Z,6.11
2019-04-21T01:00:57.048Z,6.13
2019-04-21T01:03:47.444Z,6.05
2019-04-21T01:05:57.606Z,6.17
2019-04-21T01:08:31.136Z,6.22
2019-04-21T01:10:57.024Z,6.04
2019-04-21T01:13:39.477Z,6.07
2019-04-21T01:16:10.141Z,6.24
2019-04-21T01:18:33.120Z,6.21
2019-04-21T01:20:45.468Z,6.13
2019-04-21T01:23:16.641Z,5.80
2019-04-21T01:26:05.225Z,5.89
2019-04-21T01:28:35.916Z,6.10
2019-04-21T01:31:11.119Z,6.09
2019-04-21T01:33:48.639Z,6.08
2019-04-21T01:36:11.343Z,5.99
2019-04-21T01:38:48.165Z,5.92
2019-04-21T01:41:21.284Z,5.85
2019-04-21T01:43:45.868Z,5.76
2019-04-21T01:46:15.270Z,5.76
2019-04-21T01:48:42.904Z,5.77
2019-04-21T01:51:18.364Z,5.72
2019-04-21T01:54:03.698Z,5.76
2019-04-21T01:56:46.463Z,5.70
2019-04-21T01:59:08.318Z,5.63
2019-04-21T02:01:57.538Z,5.63
2019-04-21T02:04:32.679Z,5.64
2019-04-21T02:06:59.968Z,5.61
2019-04-21T02:09:19.193Z,5.53
2019-04-21T02:12:05.832Z,5.43
2019-04-21T02:14:38.111Z,5.44
2019-04-21T02:16:59.639Z,5.45
2019-04-21T02:19:28.459Z,5.40
2019-04-21T02:21:54.296Z,5.36
2019-04-21T02:24:47.956Z,5.34
2019-04-21T02:27:07.613Z,5.34
2019-04-21T02:29:40.920Z,5.43
2019-04-21T02:35:06.380Z,5.44
2019-04-21T02:39:57.363Z,5.45
2019-04-21T02:42:32.934Z,5.45
2019-04-21T02:47:36.723Z,5.57
2019-04-21T02:55:02.684Z,5.59
2019-04-21T02:57:41.388Z,5.43
2019-04-21T03:06:25.149Z,5.63
2019-04-21T03:08:50.120Z,5.67
2019-04-21T03:11:17.415Z,5.70
2019-04-21T03:21:16.189Z,5.41
2019-04-21T03:26:28.313Z,5.28
2019-04-21T03:34:34.854Z,5.28
2019-04-21T03:41:30.537Z,5.27
2019-04-21T03:43:58.932Z,5.31
2019-04-21T03:46:37.349Z,5.34
2019-04-21T03:54:09.161Z,5.25
2019-04-21T04:01:58.406Z,5.41
2019-04-21T04:04:49.637Z,5.45
2019-04-21T04:10:22.394Z,5.48
2019-04-21T04:12:53.915Z,5.59
2019-04-21T04:17:48.225Z,5.75
2019-04-21T04:22:55.303Z,5.89
2019-04-21T04:25:43.050Z,6.09
2019-04-21T04:28:10.169Z,6.25
2019-04-21T04:30:33.963Z,6.28
2019-04-21T04:33:01.254Z,6.45
2019-04-21T04:35:49.055Z,6.62
2019-04-21T04:38:03.623Z,6.78
2019-04-21T04:40:51.770Z,6.80
2019-04-21T04:43:19.876Z,6.95
2019-04-21T04:46:11.392Z,7.00
2019-04-21T04:48:24.144Z,7.17
2019-04-21T04:50:55.407Z,7.28
2019-04-21T04:55:54.717Z,7.71
2019-04-21T04:58:38.933Z,7.81
2019-04-21T05:01:08.599Z,7.90
2019-04-21T05:03:47.302Z,8.01
2019-04-21T05:06:41.922Z,8.24
2019-04-21T05:11:46.072Z,8.27
2019-04-21T05:16:54.898Z,8.65
2019-04-21T05:21:39.008Z,8.81
2019-04-21T05:24:01.325Z,8.87
2019-04-21T05:26:36.086Z,8.94
2019-04-21T05:29:01.969Z,9.05
2019-04-21T05:31:56.942Z,9.17
2019-04-21T05:34:30.595Z,9.30
2019-04-21T05:37:20.203Z,9.48
2019-04-21T05:39:53.685Z,9.61
2019-04-21T05:42:23.626Z,9.75
2019-04-21T05:47:46.366Z,9.93
2019-04-21T05:50:16.750Z,10.03
2019-04-21T05:52:51.883Z,10.17
2019-04-21T05:58:03.942Z,10.39
2019-04-21T06:00:52.638Z,10.51
2019-04-21T06:03:09.885Z,10.71
2019-04-21T06:05:58.427Z,10.82
2019-04-21T06:08:13.692Z,10.95
2019-04-21T06:10:47.392Z,11.05
2019-04-21T06:13:22.799Z,11.13
2019-04-21T06:15:54.680Z,11.25
2019-04-21T06:18:20.332Z,11.32
2019-04-21T06:20:51.809Z,11.45
2019-04-21T06:23:19.834Z,11.56
2019-04-21T06:26:19.313Z,11.68
2019-04-21T06:28:30.567Z,11.78
2019-04-21T06:31:05.856Z,11.83
2019-04-21T06:33:32.294Z,11.92
2019-04-21T06:39:11.699Z,12.09
2019-04-21T06:41:38.029Z,12.15
2019-04-21T06:44:20.380Z,12.24
2019-04-21T06:46:40.850Z,12.31
2019-04-21T06:49:15.686Z,12.44
2019-04-21T06:51:43.607Z,12.54
2019-04-21T06:54:14.536Z,12.62
2019-04-21T06:56:47.847Z,12.70
2019-04-21T06:59:16.749Z,12.77
2019-04-21T07:01:54.744Z,12.83
2019-04-21T07:04:40.340Z,12.91
2019-04-21T07:06:57.460Z,12.74
2019-04-21T07:09:25.428Z,12.48
2019-04-21T07:11:52.841Z,12.49
2019-04-21T07:19:34.664Z,13.03
2019-04-21T07:22:09.024Z,13.10
2019-04-21T07:27:15.241Z,13.46
2019-04-21T07:29:39.582Z,13.68
2019-04-21T07:32:20.929Z,13.92
2019-04-21T07:34:38.329Z,14.02
2019-04-21T07:37:08.670Z,13.98
2019-04-21T07:39:40.772Z,14.11
2019-04-21T07:42:09.064Z,14.31
2019-04-21T07:44:37.812Z,14.49
2019-04-21T07:47:15.781Z,14.70
2019-04-21T07:49:53.102Z,14.79
2019-04-21T07:52:35.007Z,14.88
2019-04-21T07:55:12.666Z,14.84
2019-04-21T07:57:31.623Z,14.86
2019-04-21T08:00:16.066Z,14.67
2019-04-21T08:02:34.336Z,14.74
2019-04-21T08:05:13.051Z,14.95
2019-04-21T08:07:48.195Z,15.19
2019-04-21T08:10:13.519Z,15.42
2019-04-21T08:12:37.438Z,15.68
2019-04-21T08:17:41.424Z,16.00
2019-04-21T08:20:15.629Z,16.31
2019-04-21T08:30:25.785Z,18.87
2019-04-21T08:33:04.365Z,20.43
2019-04-21T08:35:48.703Z,22.01
2019-04-21T08:37:54.997Z,23.75
2019-04-21T08:40:31.673Z,25.47
2019-04-21T08:42:57.124Z,27.37
2019-04-21T08:45:40.458Z,29.07
2019-04-21T08:48:04.737Z,29.94
2019-04-21T08:50:31.011Z,30.17
2019-04-21T08:53:08.031Z,29.82
2019-04-21T08:56:12.298Z,30.43
2019-04-21T08:59:09.520Z,31.60
2019-04-21T09:02:04.257Z,32.46
2019-04-21T09:04:46.103Z,33.91
2019-04-21T09:07:13.159Z,35.33
2019-04-21T09:09:36.071Z,36.46
2019-04-21T09:12:04.311Z,37.18
2019-04-21T09:14:39.585Z,36.86
2019-04-21T09:17:06.590Z,37.97
2019-04-21T09:19:51.857Z,38.72
2019-04-21T09:22:13.224Z,39.23
2019-04-21T09:24:50.164Z,39.79
2019-04-21T09:27:15.417Z,40.29
2019-04-21T09:29:38.296Z,39.89
2019-04-21T09:32:01.928Z,41.26
2019-04-21T09:34:38.029Z,41.66
2019-04-21T09:37:15.353Z,42.29
2019-04-21T09:39:40.940Z,42.69
2019-04-21T09:42:06.660Z,42.41
2019-04-21T09:44:40.112Z,43.01
2019-04-21T09:47:09.196Z,43.39
2019-04-21T09:49:40.083Z,43.08
2019-04-21T09:52:18.572Z,43.70
2019-04-21T09:54:52.054Z,43.69
2019-04-21T09:57:25.324Z,43.80
2019-04-21T09:59:55.839Z,42.68
2019-04-21T10:02:30.460Z,42.93
2019-04-21T10:04:48.250Z,42.57
2019-04-21T10:07:26.364Z,40.28
2019-04-21T10:09:50.029Z,38.21
2019-04-21T10:12:19.978Z,37.35
2019-04-21T10:14:49.548Z,36.86
2019-04-21T10:17:27.566Z,37.22
2019-04-21T10:19:58.720Z,37.44
2019-04-21T10:22:28.878Z,37.39
2019-04-21T10:24:58.729Z,37.47
2019-04-21T10:27:29.485Z,36.10
2019-04-21T10:29:59.320Z,36.60
2019-04-21T10:32:30.100Z,35.58
2019-04-21T10:35:01.084Z,35.58
2019-04-21T10:37:42.745Z,34.91
2019-04-21T10:40:03.455Z,34.80
2019-04-21T10:42:33.518Z,35.08
2019-04-21T10:45:03.401Z,35.05
2019-04-21T10:47:32.943Z,35.55
2019-04-21T10:50:02.864Z,35.48
2019-04-21T10:52:50.989Z,35.05
2019-04-21T10:55:41.418Z,34.68
2019-04-21T10:58:24.584Z,35.62
2019-04-21T11:01:01.992Z,34.09
2019-04-21T11:03:40.391Z,36.09
2019-04-21T11:06:10.857Z,36.31
2019-04-21T11:08:45.056Z,34.87
2019-04-21T11:11:12.261Z,34.02
2019-04-21T11:13:41.633Z,33.72
2019-04-21T11:16:11.500Z,33.74
2019-04-21T11:18:42.103Z,34.37
2019-04-21T11:21:13.111Z,34.75
2019-04-21T11:23:43.862Z,34.10
2019-04-21T11:26:14.059Z,34.09
2019-04-21T11:28:45.080Z,33.06
2019-04-21T11:31:15.366Z,30.57
2019-04-21T11:33:45.416Z,28.88
2019-04-21T11:36:15.665Z,28.41
2019-04-21T11:39:27.215Z,27.29
2019-04-21T11:41:45.752Z,26.39
2019-04-21T11:44:16.312Z,26.14
2019-04-21T11:46:46.658Z,25.28
2019-04-21T11:49:16.366Z,25.23
2019-04-21T11:51:46.947Z,25.71
2019-04-21T11:54:17.113Z,26.22
2019-04-21T11:56:46.814Z,26.56
2019-04-21T11:59:17.504Z,26.44
2019-04-21T12:01:47.610Z,26.63
2019-04-21T12:04:17.982Z,26.61
2019-04-21T12:06:49.525Z,26.45
2019-04-21T12:09:19.322Z,26.71
2019-04-21T12:11:49.412Z,27.80
2019-04-21T12:14:19.886Z,29.34
2019-04-21T12:16:50.869Z,30.39
2019-04-21T12:19:20.889Z,31.57
2019-04-21T12:22:02.872Z,33.09
2019-04-21T12:24:22.094Z,34.47
2019-04-21T12:26:51.931Z,35.49
2019-04-21T12:29:24.753Z,35.90
2019-04-21T12:32:12.418Z,36.96
2019-04-21T12:34:42.047Z,38.03
2019-04-21T12:37:13.039Z,38.76
2019-04-21T12:39:43.093Z,39.14
2019-04-21T12:42:12.508Z,39.60
2019-04-21T12:44:43.348Z,39.56
2019-04-21T12:47:14.063Z,39.89
2019-04-21T12:49:43.997Z,39.66
2019-04-21T12:52:13.659Z,39.48
2019-04-21T12:54:43.917Z,39.42
2019-04-21T12:57:13.930Z,39.56
2019-04-21T12:59:44.659Z,39.68
2019-04-21T13:02:15.939Z,38.83
2019-04-21T13:04:46.186Z,35.79
2019-04-21T13:07:15.639Z,34.24
2019-04-21T13:09:46.335Z,33.80
2019-04-21T13:12:17.203Z,33.63
2019-04-21T13:14:47.468Z,33.61
2019-04-21T13:17:17.350Z,33.92
2019-04-21T13:19:47.330Z,35.00
2019-04-21T13:22:18.365Z,35.06
2019-04-21T13:24:49.570Z,35.47
2019-04-21T13:27:20.653Z,34.25
2019-04-21T13:29:50.536Z,31.69
2019-04-21T13:32:20.503Z,30.15
2019-04-21T13:34:50.953Z,28.65
2019-04-21T13:37:21.478Z,28.44
2019-04-21T13:40:32.513Z,27.79
2019-04-21T13:42:46.683Z,27.40
2019-04-21T13:45:14.087Z,26.32
2019-04-21T13:47:43.818Z,25.43
2019-04-21T13:50:15.305Z,25.10
2019-04-21T13:52:45.245Z,25.09
2019-04-21T13:55:15.853Z,25.40
2019-04-21T13:57:46.439Z,25.61
2019-04-21T14:00:17.243Z,25.67
2019-04-21T14:02:47.174Z,25.94
2019-04-21T14:05:18.144Z,25.81
2019-04-21T14:07:48.184Z,25.21
2019-04-21T14:10:18.065Z,24.91
2019-04-21T14:12:48.926Z,24.32
2019-04-21T14:15:20.355Z,23.62
2019-04-21T14:17:50.897Z,23.24
2019-04-21T14:20:21.592Z,22.84
2019-04-21T14:22:51.929Z,22.35
2019-04-21T14:25:21.715Z,22.40
2019-04-21T14:27:52.576Z,22.37
2019-04-21T14:30:23.547Z,22.46
2019-04-21T14:32:54.077Z,22.08
2019-04-21T14:35:25.028Z,21.50
2019-04-21T14:37:54.726Z,21.11
2019-04-21T14:40:27.642Z,20.92
2019-04-21T14:42:56.200Z,20.57
2019-04-21T14:45:57.156Z,20.58
2019-04-21T14:48:45.282Z,20.82
2019-04-21T14:51:34.911Z,20.98
2019-04-21T14:54:18.482Z,21.18
2019-04-21T14:56:49.257Z,21.27
2019-04-21T15:01:46.359Z,21.31
2019-04-21T15:04:17.675Z,21.29
2019-04-21T15:06:47.688Z,21.29
2019-04-21T15:09:17.238Z,21.36
2019-04-21T15:11:47.707Z,21.36
2019-04-21T15:14:17.893Z,21.21
2019-04-21T15:16:47.542Z,21.20
2019-04-21T15:19:17.216Z,21.11
2019-04-21T15:21:48.116Z,21.04
2019-04-21T15:24:18.367Z,20.87
2019-04-21T15:26:49.235Z,20.68
2019-04-21T15:29:20.418Z,20.63
2019-04-21T15:31:50.619Z,20.38
2019-04-21T15:34:22.527Z,20.27
2019-04-21T15:36:52.398Z,20.27
2019-04-21T15:39:23.528Z,20.29
2019-04-21T15:41:54.555Z,20.18
2019-04-21T15:44:24.826Z,19.89
2019-04-21T15:46:55.650Z,19.87
2019-04-21T15:49:40.567Z,19.85
2019-04-21T15:52:01.937Z,19.70
2019-04-21T15:54:32.409Z,19.64
2019-04-21T15:57:11.180Z,19.61
2019-04-21T15:59:55.517Z,19.46
2019-04-21T16:02:38.765Z,19.34
2019-04-21T16:05:10.877Z,19.26
2019-04-21T16:07:40.530Z,19.20
2019-04-21T16:10:14.472Z,19.13
2019-04-21T16:12:43.682Z,18.97
2019-04-21T16:15:14.571Z,18.90
2019-04-21T16:17:45.544Z,18.66
2019-04-21T16:20:15.832Z,18.69
2019-04-21T16:22:46.458Z,18.65
2019-04-21T16:25:17.034Z,18.45
2019-04-21T16:27:47.641Z,18.41
2019-04-21T16:30:17.692Z,18.36
2019-04-21T16:32:48.266Z,18.28
2019-04-21T16:35:20.519Z,18.21
2019-04-21T16:37:50.189Z,18.15
2019-04-21T16:40:21.264Z,18.07
2019-04-21T16:42:52.147Z,17.90
2019-04-21T16:45:25.091Z,17.81
2019-04-21T16:47:56.001Z,17.66
2019-04-21T16:50:27.950Z,17.45
2019-04-21T16:53:10.175Z,17.34
2019-04-21T16:56:04.942Z,17.19
2019-04-21T16:58:44.979Z,16.98
2019-04-21T17:01:25.705Z,16.74
2019-04-21T17:03:55.249Z,16.64
2019-04-21T17:06:24.983Z,16.46
2019-04-21T17:08:54.757Z,16.28
2019-04-21T17:11:29.281Z,16.11
2019-04-21T17:13:56.971Z,15.95
2019-04-21T17:16:51.466Z,15.75
2019-04-21T17:19:09.520Z,15.63
2019-04-21T17:21:30.725Z,15.55
2019-04-21T17:24:02.111Z,15.52
2019-04-21T17:26:34.522Z,15.46
2019-04-21T17:29:02.921Z,15.42
2019-04-21T17:31:32.511Z,15.33
2019-04-21T17:34:10.273Z,15.25
2019-04-21T17:36:34.914Z,15.10
2019-04-21T17:39:06.888Z,14.94
2019-04-21T17:41:42.467Z,14.83
2019-04-21T17:44:09.028Z,14.75
2019-04-21T17:46:46.602Z,14.73
2019-04-21T17:49:10.900Z,14.67
2019-04-21T17:52:03.964Z,14.75
2019-04-21T17:54:42.849Z,14.97
2019-04-21T17:57:29.226Z,15.00
2019-04-21T18:00:11.437Z,15.12
2019-04-21T18:02:38.599Z,15.17
2019-04-21T18:05:13.330Z,15.14
2019-04-21T18:07:34.973Z,15.16
2019-04-21T18:10:19.322Z,15.12
2019-04-21T18:12:33.796Z,15.04
2019-04-21T18:15:00.229Z,15.04
2019-04-21T18:17:22.666Z,15.03
2019-04-21T18:19:55.133Z,15.00
2019-04-21T18:22:45.484Z,14.96
2019-04-21T18:25:28.159Z,14.97
2019-04-21T18:27:48.733Z,14.99
2019-04-21T18:30:44.688Z,14.94
2019-04-21T18:33:22.284Z,14.93
2019-04-21T18:36:20.159Z,14.89
2019-04-21T18:39:10.043Z,14.81
2019-04-21T18:41:30.298Z,14.87
2019-04-21T18:44:34.521Z,14.89
2019-04-21T18:47:03.681Z,14.84
2019-04-21T18:49:21.098Z,14.77
2019-04-21T18:52:08.077Z,14.80
2019-04-21T18:54:53.667Z,14.75
2019-04-21T18:57:10.736Z,14.75
2019-04-21T18:59:39.612Z,14.72
2019-04-21T19:02:09.877Z,14.63
2019-04-21T19:04:39.060Z,14.70
2019-04-21T19:07:21.075Z,14.67
2019-04-21T19:12:42.375Z,14.66
2019-04-21T19:15:00.615Z,14.61
2019-04-21T19:17:58.086Z,14.68
2019-04-21T19:20:12.953Z,14.67
2019-04-21T19:22:40.106Z,14.65
2019-04-21T19:25:05.091Z,14.61
2019-04-21T19:27:36.548Z,14.56
2019-04-21T19:30:13.517Z,14.52
2019-04-21T19:32:43.373Z,14.48
2019-04-21T19:34:59.452Z,14.46
2019-04-21T19:37:28.234Z,14.47
2019-04-21T19:40:09.533Z,14.45
2019-04-21T19:42:37.975Z,14.45
2019-04-21T19:45:17.580Z,14.42
2019-04-21T19:47:48.874Z,14.45
2019-04-21T19:50:26.165Z,14.44
2019-04-21T19:52:44.035Z,14.42
2019-04-21T19:57:47.059Z,14.49
2019-04-21T20:00:17.479Z,14.44
2019-04-21T20:02:48.629Z,14.43
2019-04-21T20:05:28.223Z,14.42
2019-04-21T20:08:06.551Z,14.36
2019-04-21T20:10:39.520Z,14.34
2019-04-21T20:13:14.641Z,14.30
2019-04-21T20:15:46.686Z,14.24
2019-04-21T20:18:07.078Z,14.23
2019-04-21T20:20:26.973Z,14.17
2019-04-21T20:22:57.504Z,14.11
2019-04-21T20:25:29.028Z,13.94
2019-04-21T20:28:07.191Z,13.84
2019-04-21T20:30:49.074Z,13.73
2019-04-21T20:33:45.742Z,13.56
2019-04-21T20:35:55.892Z,13.37
2019-04-21T20:38:19.230Z,13.24
2019-04-21T20:40:45.888Z,13.09
2019-04-21T20:43:25.168Z,13.13
2019-04-21T20:46:00.348Z,13.12
2019-04-21T20:48:21.021Z,12.93
2019-04-21T20:51:00.614Z,12.54
2019-04-21T20:53:33.055Z,12.63
2019-04-21T20:55:57.661Z,12.51
2019-04-21T20:58:34.798Z,12.33
2019-04-21T21:01:20.270Z,12.31
2019-04-21T21:03:34.895Z,12.25
2019-04-21T21:06:02.253Z,12.06
2019-04-21T21:08:39.950Z,12.04
2019-04-21T21:11:07.033Z,11.98
2019-04-21T21:13:44.402Z,11.80
2019-04-21T21:21:15.613Z,11.49
2019-04-21T21:23:47.780Z,11.45
2019-04-21T21:26:21.879Z,11.44
2019-04-21T21:28:42.998Z,11.49
2019-04-21T21:31:25.148Z,11.40
2019-04-21T21:34:08.237Z,11.57
2019-04-21T21:36:25.210Z,11.55
2019-04-21T21:38:55.989Z,11.42
2019-04-21T21:41:18.959Z,11.33
2019-04-21T21:43:44.786Z,11.29
2019-04-21T21:46:32.492Z,11.28
2019-04-21T21:48:59.061Z,11.26
2019-04-21T21:51:29.035Z,11.25
2019-04-21T21:53:48.558Z,11.17
2019-04-21T21:56:18.480Z,10.99
2019-04-21T21:58:49.679Z,10.85
2019-04-21T22:01:21.765Z,10.71
2019-04-21T22:04:01.670Z,10.65
2019-04-21T22:06:29.216Z,10.59
2019-04-21T22:08:54.647Z,10.57
2019-04-21T22:11:24.206Z,10.55
2019-04-21T22:14:01.895Z,10.52
2019-04-21T22:16:41.139Z,10.39
2019-04-21T22:19:16.882Z,10.54
2019-04-21T22:21:47.594Z,10.55
2019-04-21T22:24:08.453Z,10.59
2019-04-21T22:26:31.284Z,10.56
2019-04-21T22:29:01.520Z,10.44
2019-04-21T22:31:34.183Z,10.41
2019-04-21T22:34:07.029Z,10.29
2019-04-21T22:36:47.208Z,10.23
2019-04-21T22:39:28.354Z,10.15
2019-04-21T22:41:46.687Z,9.98
2019-04-21T22:44:18.888Z,9.95
2019-04-21T22:46:59.995Z,9.84
2019-04-21T22:49:21.930Z,9.70
2019-04-21T22:51:52.465Z,9.76
2019-04-21T22:54:28.681Z,9.71
2019-04-21T22:57:02.684Z,9.75
2019-04-21T22:59:27.846Z,9.72
2019-04-21T23:01:57.733Z,9.66
2019-04-21T23:04:35.901Z,9.71
2019-04-21T23:07:02.829Z,9.77
2019-04-21T23:09:30.872Z,9.65
2019-04-21T23:12:02.793Z,9.57
2019-04-21T23:14:45.616Z,9.52
2019-04-21T23:17:23.930Z,9.47
2019-04-21T23:19:53.884Z,9.38
2019-04-21T23:22:27.969Z,9.40
2019-04-21T23:24:57.554Z,9.37
2019-04-21T23:27:23.986Z,9.24
2019-04-21T23:30:11.663Z,9.27
2019-04-21T23:32:23.567Z,9.23
2019-04-21T23:34:45.942Z,9.20
2019-04-21T23:37:20.264Z,9.22
2019-04-21T23:39:47.729Z,9.06
2019-04-21T23:42:23.695Z,9.14
2019-04-21T23:44:52.946Z,9.07
2019-04-21T23:47:37.352Z,8.99
2019-04-21T23:50:00.461Z,9.07
2019-04-21T23:52:23.827Z,9.10
2019-04-21T23:54:53.606Z,8.83
2019-04-21T23:57:31.782Z,8.85
2019-04-21T23:59:57.100Z,9.06
